createdAt,value
2022-10-16T00:02:18.833Z,95.08
2022-10-16T00:04:45.166Z,95.33
2022-10-16T00:07:11.574Z,95.16
2022-10-16T00:09:37.912Z,95.15
2022-10-16T00:12:04.400Z,95.19
2022-10-16T00:14:31.163Z,95.20
2022-10-16T00:16:57.453Z,95.52
2022-10-16T00:19:23.981Z,95.31
2022-10-16T00:21:50.307Z,95.78
2022-10-16T00:24:16.671Z,95.50
2022-10-16T00:26:43.007Z,95.98
2022-10-16T00:29:10.066Z,95.79
2022-10-16T00:31:36.466Z,96.02
2022-10-16T00:34:03.465Z,96.26
2022-10-16T00:36:29.938Z,96.74
2022-10-16T00:41:33.539Z,97.17
2022-10-16T00:44:03.682Z,97.20
2022-10-16T00:46:40.059Z,97.13
2022-10-16T00:49:11.037Z,97.42
2022-10-16T00:51:42.045Z,97.17
2022-10-16T00:54:16.224Z,97.09
2022-10-16T00:56:44.512Z,96.63
2022-10-16T00:59:17.326Z,96.60
2022-10-16T01:01:43.631Z,96.58
2022-10-16T01:04:10.042Z,96.73
2022-10-16T01:07:11.521Z,96.74
2022-10-16T01:09:55.892Z,96.56
2022-10-16T01:13:06.549Z,96.73
2022-10-16T01:15:45.496Z,96.73
2022-10-16T01:18:26.136Z,97.02
2022-10-16T01:21:00.003Z,96.78
2022-10-16T01:23:26.272Z,96.78
2022-10-16T01:25:58.829Z,96.85
2022-10-16T01:28:34.675Z,96.80
2022-10-16T01:31:03.322Z,96.73
2022-10-16T01:33:37.926Z,97.15
2022-10-16T01:36:11.505Z,96.99
2022-10-16T01:38:40.007Z,96.82
2022-10-16T01:41:15.262Z,96.73
2022-10-16T01:43:47.492Z,96.79
2022-10-16T01:46:16.848Z,96.33
2022-10-16T01:48:43.144Z,96.57
2022-10-16T01:51:15.825Z,96.65
2022-10-16T01:53:47.327Z,96.99
2022-10-16T01:56:16.406Z,96.99
2022-10-16T01:58:50.656Z,96.65
2022-10-16T02:01:21.215Z,96.60
2022-10-16T02:03:51.031Z,96.83
2022-10-16T02:06:17.387Z,96.45
2022-10-16T02:08:43.925Z,96.74
2022-10-16T02:11:11.205Z,96.80
2022-10-16T02:13:44.180Z,96.65
2022-10-16T02:16:12.148Z,97.13
2022-10-16T02:18:39.308Z,97.58
2022-10-16T02:21:26.744Z,98.20
2022-10-16T02:24:02.238Z,98.00
2022-10-16T02:26:36.375Z,98.14
2022-10-16T02:29:07.611Z,98.74
2022-10-16T02:31:39.282Z,98.73
2022-10-16T02:34:07.454Z,98.69
2022-10-16T02:36:36.470Z,98.52
2022-10-16T02:39:05.117Z,98.44
2022-10-16T02:41:31.723Z,98.53
2022-10-16T02:43:58.111Z,98.73
2022-10-16T02:46:24.616Z,98.63
2022-10-16T02:48:50.918Z,99.04
2022-10-16T02:51:17.225Z,99.12
2022-10-16T02:53:43.548Z,99.00
2022-10-16T02:56:10.093Z,99.37
2022-10-16T02:58:36.491Z,100.00
2022-10-16T03:01:02.937Z,99.64
2022-10-16T03:03:29.369Z,99.54
2022-10-16T03:05:55.725Z,99.91
2022-10-16T03:08:22.042Z,99.72
2022-10-16T03:10:48.393Z,99.64
2022-10-16T03:13:14.697Z,99.87
2022-10-16T03:15:41.018Z,100.00
2022-10-16T03:18:07.644Z,100.00
2022-10-16T03:20:34.418Z,99.64
2022-10-16T03:23:00.736Z,99.72
2022-10-16T03:25:27.071Z,99.69
2022-10-16T03:27:53.372Z,99.58
2022-10-16T03:30:19.686Z,99.34
2022-10-16T03:32:46.042Z,99.34
2022-10-16T03:35:12.430Z,99.41
2022-10-16T03:37:38.938Z,99.28
2022-10-16T03:40:05.963Z,98.88
2022-10-16T03:42:32.294Z,99.03
2022-10-16T03:44:58.632Z,98.93
2022-10-16T03:47:25.303Z,99.09
2022-10-16T03:49:51.982Z,99.20
2022-10-16T03:54:45.525Z,100.00
2022-10-16T03:57:12.148Z,100.00
2022-10-16T03:59:38.553Z,100.00
2022-10-16T04:02:04.873Z,100.00
2022-10-16T04:04:31.231Z,100.00
2022-10-16T04:06:57.552Z,100.00
2022-10-16T04:09:23.866Z,100.00
2022-10-16T04:11:50.233Z,100.00
2022-10-16T04:14:16.518Z,100.00
2022-10-16T04:16:42.844Z,100.00
2022-10-16T04:19:10.487Z,100.00
2022-10-16T04:21:37.307Z,100.00
2022-10-16T04:24:04.026Z,100.00
2022-10-16T04:26:30.937Z,100.00
2022-10-16T04:28:57.379Z,100.00
2022-10-16T04:31:23.740Z,100.00
2022-10-16T04:33:50.141Z,100.00
2022-10-16T04:36:16.508Z,100.00
2022-10-16T04:38:42.823Z,100.00
2022-10-16T04:41:09.382Z,100.00
2022-10-16T04:43:36.322Z,100.00
2022-10-16T04:46:02.818Z,100.00
2022-10-16T04:48:29.154Z,100.00
2022-10-16T04:50:55.488Z,100.00
2022-10-16T04:53:22.016Z,100.00
2022-10-16T04:55:48.353Z,100.00
2022-10-16T04:58:14.708Z,100.00
2022-10-16T05:00:41.016Z,100.00
2022-10-16T05:03:07.359Z,100.00
2022-10-16T05:05:34.695Z,100.00
2022-10-16T05:08:01.051Z,100.00
2022-10-16T05:10:27.416Z,100.00
2022-10-16T05:12:53.741Z,100.00
2022-10-16T05:15:20.073Z,100.00
2022-10-16T05:17:46.460Z,100.00
2022-10-16T05:20:13.185Z,100.00
2022-10-16T05:22:39.510Z,100.00
2022-10-16T05:25:06.398Z,100.00
2022-10-16T05:27:32.708Z,100.00
2022-10-16T05:29:59.053Z,100.00
2022-10-16T05:32:25.414Z,100.00
2022-10-16T05:34:51.784Z,100.00
2022-10-16T05:37:18.159Z,100.00
2022-10-16T05:39:44.552Z,100.00
2022-10-16T05:42:10.881Z,100.00
2022-10-16T05:44:37.221Z,100.00
2022-10-16T05:47:03.565Z,100.00
2022-10-16T05:49:29.893Z,100.00
2022-10-16T05:51:56.199Z,100.00
2022-10-16T05:54:22.546Z,100.00
2022-10-16T05:56:48.857Z,100.00
2022-10-16T05:59:15.241Z,100.00
2022-10-16T06:01:41.559Z,100.00
2022-10-16T06:04:09.289Z,100.00
2022-10-16T06:06:35.828Z,100.00
2022-10-16T06:09:02.138Z,100.00
2022-10-16T06:11:30.775Z,100.00
2022-10-16T06:13:59.138Z,100.00
2022-10-16T06:16:26.554Z,100.00
2022-10-16T06:18:54.442Z,100.00
2022-10-16T06:21:23.979Z,100.00
2022-10-16T06:23:50.289Z,100.00
2022-10-16T06:26:20.042Z,100.00
2022-10-16T06:28:47.101Z,100.00
2022-10-16T06:31:14.591Z,100.00
2022-10-16T06:33:41.343Z,100.00
2022-10-16T06:36:11.552Z,100.00
2022-10-16T06:38:38.673Z,100.00
2022-10-16T06:41:06.381Z,100.00
2022-10-16T06:43:33.376Z,100.00
2022-10-16T06:46:00.852Z,100.00
2022-10-16T06:48:28.290Z,99.90
2022-10-16T06:51:02.793Z,99.31
2022-10-16T06:53:39.504Z,99.20
2022-10-16T06:56:10.464Z,99.14
2022-10-16T06:58:37.761Z,98.94
2022-10-16T07:01:05.314Z,99.34
2022-10-16T07:03:31.909Z,99.41
2022-10-16T07:05:58.297Z,99.18
2022-10-16T07:08:24.615Z,99.46
2022-10-16T07:10:59.317Z,99.79
2022-10-16T07:13:25.648Z,99.91
2022-10-16T07:15:51.958Z,99.61
2022-10-16T07:18:18.351Z,99.27
2022-10-16T07:20:44.725Z,99.06
2022-10-16T07:23:11.045Z,98.57
2022-10-16T07:25:37.358Z,98.69
2022-10-16T07:28:03.894Z,98.51
2022-10-16T07:30:30.205Z,98.07
2022-10-16T07:32:56.530Z,97.95
2022-10-16T07:35:22.836Z,97.60
2022-10-16T07:37:49.151Z,96.72
2022-10-16T07:40:15.485Z,97.09
2022-10-16T07:42:41.791Z,95.72
2022-10-16T07:45:08.362Z,96.23
2022-10-16T07:47:34.691Z,96.55
2022-10-16T07:50:00.991Z,96.38
2022-10-16T07:52:27.329Z,95.83
2022-10-16T07:57:25.249Z,96.67
2022-10-16T07:59:51.731Z,96.01
2022-10-16T08:02:18.090Z,96.29
2022-10-16T08:04:44.410Z,95.67
2022-10-16T08:07:10.723Z,96.01
2022-10-16T08:09:37.058Z,96.49
2022-10-16T08:12:03.481Z,96.40
2022-10-16T08:14:29.806Z,96.51
2022-10-16T08:16:56.141Z,96.59
2022-10-16T08:19:22.489Z,96.06
2022-10-16T08:21:48.878Z,95.76
2022-10-16T08:24:15.199Z,94.17
2022-10-16T08:26:41.509Z,94.18
2022-10-16T08:29:07.854Z,93.23
2022-10-16T08:31:34.238Z,93.14
2022-10-16T08:34:01.067Z,93.75
2022-10-16T08:36:27.373Z,94.42
2022-10-16T08:38:53.662Z,92.67
2022-10-16T08:41:37.986Z,85.70
2022-10-16T08:44:36.204Z,86.04
2022-10-16T08:47:23.824Z,83.68
2022-10-16T08:50:00.160Z,78.28
2022-10-16T08:52:33.630Z,77.36
2022-10-16T08:55:00.030Z,71.78
2022-10-16T08:57:27.244Z,74.29
2022-10-16T08:59:54.608Z,71.44
2022-10-16T09:02:20.863Z,70.83
2022-10-16T09:05:02.254Z,65.09
2022-10-16T09:08:09.140Z,64.68
2022-10-16T09:10:57.122Z,63.84
2022-10-16T09:13:36.388Z,65.54
2022-10-16T09:16:15.767Z,62.81
2022-10-16T09:18:52.744Z,64.71
2022-10-16T09:21:30.545Z,65.29
2022-10-16T09:24:16.307Z,63.99
2022-10-16T09:26:43.765Z,63.46
2022-10-16T09:29:13.580Z,64.96
2022-10-16T09:31:40.210Z,63.36
2022-10-16T09:34:10.222Z,62.57
2022-10-16T09:36:42.655Z,63.15
2022-10-16T09:39:10.983Z,62.80
2022-10-16T09:41:40.393Z,63.30
2022-10-16T09:44:21.653Z,62.72
2022-10-16T09:46:47.994Z,64.04
2022-10-16T09:49:23.215Z,65.79
2022-10-16T09:51:49.786Z,65.36
2022-10-16T09:54:19.249Z,67.62
2022-10-16T09:56:45.881Z,68.06
2022-10-16T09:59:14.633Z,66.80
2022-10-16T10:01:48.206Z,67.08
2022-10-16T10:04:15.530Z,67.48
2022-10-16T10:06:48.981Z,66.68
2022-10-16T10:09:22.896Z,66.44
2022-10-16T10:11:57.853Z,66.61
2022-10-16T10:14:27.703Z,66.87
2022-10-16T10:17:05.972Z,66.65
2022-10-16T10:19:53.625Z,66.21
2022-10-16T10:22:25.546Z,64.97
2022-10-16T10:25:14.015Z,66.13
2022-10-16T10:28:02.098Z,65.92
2022-10-16T10:30:41.852Z,66.04
2022-10-16T10:33:13.052Z,67.30
2022-10-16T10:36:05.982Z,66.62
2022-10-16T10:38:54.058Z,65.76
2022-10-16T10:41:40.731Z,67.31
2022-10-16T10:44:26.025Z,68.14
2022-10-16T10:46:56.558Z,67.66
2022-10-16T10:49:38.093Z,66.38
2022-10-16T10:52:29.496Z,67.91
2022-10-16T10:55:11.311Z,68.51
2022-10-16T10:57:58.594Z,68.59
2022-10-16T11:00:49.333Z,69.56
2022-10-16T11:03:24.721Z,67.03
2022-10-16T11:06:05.453Z,66.84
2022-10-16T11:08:36.735Z,67.34
2022-10-16T11:11:07.817Z,66.40
2022-10-16T11:13:55.570Z,65.54
2022-10-16T11:16:28.314Z,67.38
2022-10-16T11:19:19.747Z,65.19
2022-10-16T11:21:56.360Z,65.67
2022-10-16T11:24:46.766Z,65.90
2022-10-16T11:27:20.844Z,64.61
2022-10-16T11:29:58.136Z,65.62
2022-10-16T11:32:40.198Z,66.36
2022-10-16T11:35:18.174Z,65.39
2022-10-16T11:37:49.237Z,65.28
2022-10-16T11:40:31.953Z,65.42
2022-10-16T11:43:31.856Z,65.08
2022-10-16T11:46:05.326Z,65.47
2022-10-16T11:48:44.291Z,64.68
2022-10-16T11:51:37.175Z,63.17
2022-10-16T11:54:09.581Z,63.22
2022-10-16T11:56:40.305Z,64.82
2022-10-16T11:59:26.926Z,64.94
2022-10-16T12:02:16.163Z,62.54
2022-10-16T12:04:48.055Z,63.36
2022-10-16T12:07:20.976Z,63.86
2022-10-16T12:09:47.270Z,61.80
2022-10-16T12:12:40.626Z,63.33
2022-10-16T12:15:35.172Z,63.73
2022-10-16T12:17:53.874Z,63.85
2022-10-16T12:20:27.553Z,63.09
2022-10-16T12:23:04.485Z,61.37
2022-10-16T12:25:40.550Z,60.66
2022-10-16T12:28:15.690Z,61.13
2022-10-16T12:30:43.457Z,60.94
2022-10-16T12:33:31.381Z,57.90
2022-10-16T12:36:00.574Z,60.51
2022-10-16T12:38:53.639Z,58.96
2022-10-16T12:41:34.562Z,58.88
2022-10-16T12:44:01.346Z,58.78
2022-10-16T12:46:30.358Z,57.92
2022-10-16T12:49:15.134Z,57.55
2022-10-16T12:51:43.021Z,59.38
2022-10-16T12:54:38.094Z,59.31
2022-10-16T12:57:21.122Z,57.40
2022-10-16T13:00:10.896Z,56.70
2022-10-16T13:02:50.088Z,59.81
2022-10-16T13:05:40.758Z,59.15
2022-10-16T13:08:44.304Z,60.93
2022-10-16T13:11:22.833Z,60.60
2022-10-16T13:14:07.647Z,60.20
2022-10-16T13:17:02.563Z,61.44
2022-10-16T13:20:02.627Z,61.89
2022-10-16T13:22:47.902Z,62.19
2022-10-16T13:25:43.523Z,62.58
2022-10-16T13:28:13.137Z,63.16
2022-10-16T13:30:52.959Z,63.11
2022-10-16T13:33:34.153Z,63.92
2022-10-16T13:36:01.575Z,63.54
2022-10-16T13:38:30.739Z,62.95
2022-10-16T13:41:01.670Z,62.06
2022-10-16T13:43:40.763Z,62.19
2022-10-16T13:46:21.996Z,62.15
2022-10-16T13:49:06.508Z,62.64
2022-10-16T13:51:34.190Z,62.24
2022-10-16T13:54:00.739Z,61.52
2022-10-16T13:56:30.070Z,62.61
2022-10-16T13:59:04.965Z,63.40
2022-10-16T14:01:45.250Z,63.90
2022-10-16T14:04:14.384Z,63.98
2022-10-16T14:06:46.433Z,63.51
2022-10-16T14:09:21.540Z,63.97
2022-10-16T14:11:51.564Z,63.93
2022-10-16T14:14:19.694Z,64.14
2022-10-16T14:16:46.317Z,64.92
2022-10-16T14:19:31.869Z,65.12
2022-10-16T14:22:00.745Z,65.47
2022-10-16T14:24:31.808Z,65.07
2022-10-16T14:26:58.950Z,65.08
2022-10-16T14:29:27.311Z,65.57
2022-10-16T14:32:07.262Z,65.06
2022-10-16T14:34:35.927Z,65.75
2022-10-16T14:37:11.996Z,66.83
2022-10-16T14:39:38.402Z,66.37
2022-10-16T14:42:04.726Z,67.14
2022-10-16T14:44:33.933Z,66.41
2022-10-16T14:47:09.480Z,66.92
2022-10-16T14:49:35.841Z,67.43
2022-10-16T14:52:02.578Z,67.62
2022-10-16T14:54:28.904Z,67.52
2022-10-16T14:56:58.063Z,67.45
2022-10-16T14:59:39.641Z,67.41
2022-10-16T15:02:24.294Z,68.32
2022-10-16T15:04:50.775Z,68.64
2022-10-16T15:07:17.231Z,69.02
2022-10-16T15:09:48.124Z,69.80
2022-10-16T15:12:16.060Z,70.16
2022-10-16T15:14:42.366Z,70.30
2022-10-16T15:17:12.288Z,70.91
2022-10-16T15:19:39.051Z,71.35
2022-10-16T15:22:05.395Z,72.04
2022-10-16T15:24:31.751Z,71.33
2022-10-16T15:26:58.069Z,71.48
2022-10-16T15:29:24.367Z,71.84
2022-10-16T15:31:50.706Z,72.63
2022-10-16T15:34:17.043Z,72.75
2022-10-16T15:36:43.365Z,73.16
2022-10-16T15:39:14.951Z,73.26
2022-10-16T15:44:12.824Z,73.59
2022-10-16T15:46:39.151Z,73.14
2022-10-16T15:49:05.481Z,73.20
2022-10-16T15:51:31.907Z,73.52
2022-10-16T15:53:58.266Z,73.31
2022-10-16T15:56:24.657Z,73.01
2022-10-16T15:58:50.986Z,72.90
2022-10-16T16:01:22.126Z,73.23
2022-10-16T16:03:48.489Z,73.67
2022-10-16T16:06:15.075Z,74.24
2022-10-16T16:08:41.806Z,74.57
2022-10-16T16:11:12.863Z,74.93
2022-10-16T16:13:39.780Z,74.95
2022-10-16T16:16:08.493Z,75.61
2022-10-16T16:18:36.985Z,76.63
2022-10-16T16:21:04.323Z,77.50
2022-10-16T16:23:30.981Z,77.25
2022-10-16T16:26:05.891Z,78.59
2022-10-16T16:28:32.522Z,78.45
2022-10-16T16:31:01.763Z,79.06
2022-10-16T16:33:28.090Z,79.18
2022-10-16T16:36:02.115Z,79.70
2022-10-16T16:38:28.987Z,80.27
2022-10-16T16:40:56.492Z,81.31
2022-10-16T16:43:28.760Z,82.54
2022-10-16T16:45:55.647Z,82.39
2022-10-16T16:48:22.683Z,82.29
2022-10-16T16:50:49.017Z,83.55
2022-10-16T16:53:15.346Z,83.44
2022-10-16T16:55:41.710Z,83.53
2022-10-16T16:58:08.184Z,83.68
2022-10-16T17:00:34.496Z,84.60
2022-10-16T17:03:00.890Z,84.99
2022-10-16T17:05:27.314Z,84.82
2022-10-16T17:07:53.686Z,84.80
2022-10-16T17:10:20.008Z,85.04
2022-10-16T17:12:46.377Z,85.92
2022-10-16T17:15:12.774Z,85.49
2022-10-16T17:17:39.137Z,85.88
2022-10-16T17:20:05.902Z,86.16
2022-10-16T17:22:32.216Z,85.96
2022-10-16T17:24:58.530Z,86.23
2022-10-16T17:27:24.861Z,86.61
2022-10-16T17:29:52.062Z,87.05
2022-10-16T17:32:18.565Z,87.20
2022-10-16T17:34:44.881Z,87.33
2022-10-16T17:37:14.373Z,87.54
2022-10-16T17:39:43.572Z,87.21
2022-10-16T17:42:09.898Z,87.55
2022-10-16T17:44:36.278Z,87.73
2022-10-16T17:47:02.591Z,87.80
2022-10-16T17:49:28.930Z,87.91
2022-10-16T17:51:55.263Z,87.90
2022-10-16T17:54:21.617Z,88.48
2022-10-16T17:56:48.030Z,88.24
2022-10-16T17:59:14.863Z,88.83
2022-10-16T18:01:41.775Z,89.16
2022-10-16T18:04:11.031Z,90.27
2022-10-16T18:06:37.540Z,91.04
2022-10-16T18:09:04.701Z,92.24
2022-10-16T18:11:31.237Z,92.92
2022-10-16T18:13:59.502Z,92.70
2022-10-16T18:16:27.917Z,92.38
2022-10-16T18:18:55.286Z,92.54
2022-10-16T18:21:21.620Z,91.90
2022-10-16T18:23:51.073Z,92.05
2022-10-16T18:26:19.721Z,93.68
2022-10-16T18:28:46.085Z,92.95
2022-10-16T18:31:15.353Z,93.54
2022-10-16T18:33:43.114Z,94.04
2022-10-16T18:36:11.366Z,94.52
2022-10-16T18:38:38.046Z,95.31
2022-10-16T18:41:05.026Z,95.09
2022-10-16T18:43:36.074Z,95.42
2022-10-16T18:46:05.603Z,95.23
2022-10-16T18:48:32.359Z,94.92
2022-10-16T18:51:15.043Z,96.18
2022-10-16T18:53:42.700Z,94.98
2022-10-16T18:56:10.145Z,94.72
2022-10-16T18:58:36.922Z,94.62
2022-10-16T19:01:07.837Z,94.31
2022-10-16T19:03:34.599Z,94.32
2022-10-16T19:06:03.098Z,93.99
2022-10-16T19:08:29.995Z,94.11
2022-10-16T19:10:56.294Z,94.16
2022-10-16T19:13:22.607Z,95.14
2022-10-16T19:15:58.048Z,95.86
2022-10-16T19:18:27.023Z,95.73
2022-10-16T19:20:54.136Z,95.32
2022-10-16T19:23:20.916Z,94.66
2022-10-16T19:25:47.291Z,95.78
2022-10-16T19:28:13.593Z,96.27
2022-10-16T19:30:41.759Z,96.13
2022-10-16T19:33:08.635Z,96.81
2022-10-16T19:35:35.247Z,96.45
2022-10-16T19:38:01.626Z,96.24
2022-10-16T19:40:28.404Z,96.41
2022-10-16T19:42:54.711Z,96.68
2022-10-16T19:45:21.642Z,97.33
2022-10-16T19:47:48.049Z,97.60
2022-10-16T19:50:14.402Z,97.57
2022-10-16T19:52:43.518Z,97.34
2022-10-16T19:55:10.181Z,98.14
2022-10-16T19:57:37.141Z,99.14
2022-10-16T20:00:06.415Z,99.26
2022-10-16T20:02:33.030Z,99.81
2022-10-16T20:04:59.361Z,100.00
2022-10-16T20:07:28.078Z,100.00
2022-10-16T20:09:56.527Z,100.00
2022-10-16T20:12:22.857Z,100.00
2022-10-16T20:14:49.194Z,99.71
2022-10-16T20:17:15.575Z,99.65
2022-10-16T20:19:41.889Z,99.16
2022-10-16T20:22:08.172Z,99.37
2022-10-16T20:24:34.535Z,99.89
2022-10-16T20:27:00.848Z,99.43
2022-10-16T20:29:27.153Z,100.00
2022-10-16T20:31:53.487Z,100.00
2022-10-16T20:34:19.787Z,100.00
2022-10-16T20:36:46.081Z,100.00
2022-10-16T20:39:12.573Z,100.00
2022-10-16T20:41:39.103Z,100.00
2022-10-16T20:44:05.876Z,100.00
2022-10-16T20:46:32.602Z,100.00
2022-10-16T20:49:06.186Z,100.00
2022-10-16T20:51:38.222Z,100.00
2022-10-16T20:54:06.544Z,100.00
2022-10-16T20:56:36.248Z,100.00
2022-10-16T20:59:03.353Z,100.00
2022-10-16T21:01:29.989Z,100.00
2022-10-16T21:04:01.379Z,100.00
2022-10-16T21:06:28.222Z,100.00
2022-10-16T21:08:54.678Z,100.00
2022-10-16T21:11:27.712Z,100.00
2022-10-16T21:13:56.246Z,99.72
2022-10-16T21:16:22.662Z,100.00
2022-10-16T21:18:49.547Z,100.00
2022-10-16T21:21:30.379Z,100.00
2022-10-16T21:23:58.159Z,100.00
2022-10-16T21:26:25.343Z,100.00
2022-10-16T21:29:03.819Z,100.00
2022-10-16T21:31:30.471Z,100.00
2022-10-16T21:33:57.010Z,100.00
2022-10-16T21:36:31.714Z,100.00
2022-10-16T21:39:03.444Z,100.00
2022-10-16T21:41:29.832Z,100.00
2022-10-16T21:43:57.423Z,100.00
2022-10-16T21:46:26.388Z,100.00
2022-10-16T21:48:53.622Z,100.00
2022-10-16T21:51:20.570Z,100.00
2022-10-16T21:53:46.878Z,100.00
2022-10-16T21:56:15.033Z,100.00
2022-10-16T21:58:41.829Z,100.00
2022-10-16T22:01:10.559Z,100.00
2022-10-16T22:03:36.959Z,100.00
2022-10-16T22:06:06.658Z,100.00
2022-10-16T22:08:34.323Z,100.00
2022-10-16T22:11:09.413Z,100.00
2022-10-16T22:13:36.593Z,100.00
2022-10-16T22:16:03.366Z,100.00
2022-10-16T22:18:30.064Z,100.00
2022-10-16T22:20:57.001Z,100.00
2022-10-16T22:23:23.658Z,100.00
2022-10-16T22:25:50.516Z,100.00
2022-10-16T22:28:17.732Z,100.00
2022-10-16T22:30:44.954Z,99.98
2022-10-16T22:33:11.751Z,99.74
2022-10-16T22:35:39.551Z,99.52
2022-10-16T22:38:06.520Z,100.00
2022-10-16T22:40:37.224Z,100.00
2022-10-16T22:43:04.625Z,100.00
2022-10-16T22:45:32.393Z,100.00
2022-10-16T22:47:59.101Z,100.00
2022-10-16T22:50:26.221Z,100.00
2022-10-16T22:52:53.116Z,100.00
2022-10-16T22:55:19.838Z,100.00
2022-10-16T22:57:46.194Z,100.00
2022-10-16T23:00:15.813Z,100.00
2022-10-16T23:02:42.440Z,100.00
2022-10-16T23:05:10.409Z,100.00
2022-10-16T23:07:38.064Z,100.00
2022-10-16T23:10:05.916Z,100.00
2022-10-16T23:12:32.240Z,100.00
2022-10-16T23:14:58.565Z,100.00
2022-10-16T23:17:24.903Z,100.00
2022-10-16T23:19:51.231Z,100.00
2022-10-16T23:22:17.574Z,100.00
2022-10-16T23:24:44.117Z,100.00
2022-10-16T23:27:10.465Z,100.00
2022-10-16T23:29:36.960Z,100.00
2022-10-16T23:32:03.357Z,100.00
2022-10-16T23:34:29.783Z,100.00
2022-10-16T23:36:56.161Z,100.00
2022-10-16T23:39:22.865Z,100.00
2022-10-16T23:41:49.179Z,100.00
2022-10-16T23:44:15.601Z,100.00
2022-10-16T23:46:41.983Z,100.00
2022-10-16T23:49:08.279Z,100.00
2022-10-16T23:51:34.578Z,100.00
2022-10-16T23:54:00.978Z,100.00
2022-10-16T23:56:27.295Z,100.00
2022-10-16T23:58:53.613Z,100.00
